Flight Track Log - Related Links

Times and Time Zones

All times are in EDT time to prevent confusion due to time zone crossing. See the AAL963 flight status page for this flight to view local times or setup timezone preferences in your user account.

Time Position Orientation Groundspeed Altitude Reporting Facility
EDT Latitude Longitude Course Direction KTS MPH feet Rate Location/Type
Sat 09:04:20 PM 32.8750 -97.0310 182° South 185 213 1,400  Level FlightAware ADS-B
Sat 09:04:40 PM 32.8560 -97.0270 170° South 189 217 2,200 1,500 Climbing FlightAware ADS-B
Sat 09:05:00 PM 32.8380 -97.0220 167° South 219 252 2,400 750 Climbing FlightAware ADS-B
Sat 09:05:20 PM 32.8170 -97.0150 164° South 241 277 2,700 1,167 Climbing FlightAware ADS-B
Sat 09:05:36 PM 32.8000 -97.0100 166° South 256 295 3,100 2,000 Climbing FlightAware ADS-B
Sat 09:05:56 PM 32.7760 -97.0030 166° South 262 302 3,900 2,571 Climbing FlightAware ADS-B
Sat 09:06:18 PM 32.7500 -96.9950 165° South 265 305 4,900 2,714 Climbing FlightAware ADS-B
Sat 09:06:38 PM 32.7250 -96.9880 167° South 267 307 5,800 2,550 Climbing FlightAware ADS-B
Sat 09:06:58 PM 32.7000 -96.9800 165° South 271 312 6,600 2,400 Climbing FlightAware ADS-B
Sat 09:07:18 PM 32.6770 -96.9710 162° South 274 315 7,400 2,471 Climbing FlightAware ADS-B
Sat 09:07:32 PM 32.6600 -96.9640 161° South 277 319 8,000 2,500 Climbing FlightAware ADS-B
Sat 09:07:54 PM 32.6330 -96.9530 161° South 282 325 8,900 2,429 Climbing FlightAware ADS-B
Sat 09:08:14 PM 32.6070 -96.9430 162° South 290 334 9,700 2,000 Climbing FlightAware ADS-B
Sat 09:08:51 PM 32.5590 -96.9240 162° South 310 357 10,800 1,315 Climbing FlightAware ADS-B
Sat 09:09:27 PM 32.5060 -96.9030 162° South 354 407 11,300 1,000 Climbing FlightAware ADS-B
Sat 09:10:03 PM 32.4470 -96.8790 161° South 386 444 12,000 1,636 Climbing FlightAware ADS-B
Sat 09:10:33 PM 32.3940 -96.8590 162° South 397 457 13,100 2,190 Climbing FlightAware ADS-B
Sat 09:11:06 PM 32.3390 -96.8370 161° South 402 463 14,300 2,250 Climbing FlightAware ADS-B
Sat 09:11:45 PM 32.2670 -96.8087 162° South 408 470 15,800 2,174 Climbing FlightAware ADS-B
Sat 09:12:15 PM 32.2121 -96.7877 162° South 417 480 16,800 2,000 Climbing FlightAware ADS-B
Sat 09:12:57 PM 32.1360 -96.7590 162° South 424 488 18,200 2,129 Climbing FlightAware ADS-B
Sat 09:13:17 PM 32.0951 -96.7435 162° South 429 494 19,000 2,235 Climbing FlightAware ADS-B
Sat 09:13:48 PM 32.0370 -96.7213 162° South 431 496 20,100 2,032 Climbing FlightAware ADS-B
Sat 09:14:19 PM 31.9786 -96.6991 162° South 436 502 21,100 1,770 Climbing FlightAware ADS-B
Sat 09:14:49 PM 31.9195 -96.6767 162° South 445 512 21,900 1,574 Climbing FlightAware ADS-B
Sat 09:15:20 PM 31.8593 -96.6537 162° South 453 521 22,700 1,452 Climbing FlightAware ADS-B
Sat 09:15:51 PM 31.7970 -96.6280 161° South 461 531 23,400 1,429 Climbing FlightAware ADS-B
Sat 09:16:23 PM 31.7305 -96.6002 160° South 468 539 24,200 1,500 Climbing FlightAware ADS-B
Sat 09:16:55 PM 31.6655 -96.5736 161° South 476 548 25,000 1,524 Climbing FlightAware ADS-B
Sat 09:17:26 PM 31.6000 -96.5469 161° South 481 554 25,800 1,377 Climbing FlightAware ADS-B
Sat 09:17:56 PM 31.5356 -96.5208 161° South 489 563 26,400 1,279 Climbing FlightAware ADS-B
Sat 09:18:27 PM 31.4705 -96.4952 161° South 494 568 27,100 1,377 Climbing FlightAware ADS-B
Sat 09:18:57 PM 31.4032 -96.4704 163° South 497 572 27,800 1,300 Climbing FlightAware ADS-B
Sat 09:19:27 PM 31.3367 -96.4458 162° South 503 579 28,400 1,279 Climbing FlightAware ADS-B
Sat 09:19:58 PM 31.2678 -96.4203 162° South 507 583 29,100 1,245 Climbing FlightAware ADS-B
Sat 09:20:20 PM 31.2185 -96.4016 162° South 509 586 29,500 1,000 Climbing FlightAware ADS-B
Sat 09:20:34 PM 31.1890 -96.3849 154° Southeast 514 592 29,700 1,043 Climbing FlightAware ADS-B
Sat 09:20:43 PM 31.1712 -96.3713 147° Southeast 517 595 29,900 1,304 Climbing FlightAware ADS-B
Sat 09:20:57 PM 31.1458 -96.3459 139° Southeast 517 595 30,200 1,556 Climbing FlightAware ADS-B
Sat 09:21:10 PM 31.1249 -96.3175 131° Southeast 517 595 30,600 1,674 Climbing FlightAware ADS-B
Sat 09:21:40 PM 31.0830 -96.2498 126° Southeast 515 593 31,400 1,574 Climbing FlightAware ADS-B
Sat 09:22:11 PM 31.0410 -96.1810 125° Southeast 512 589 32,200 1,475 Climbing FlightAware ADS-B
Sat 09:22:41 PM 30.9995 -96.1130 125° Southeast 508 585 32,900 787 Climbing FlightAware ADS-B
Sat 09:23:12 PM 30.9581 -96.0454 126° Southeast 504 580 33,000 98 Climbing FlightAware ADS-B
Sat 09:23:42 PM 30.9172 -95.9792 126° Southeast 505 581 33,000  Level FlightAware ADS-B
Sat 09:24:13 PM 30.8752 -95.9114 126° Southeast 505 581 33,000  Level FlightAware ADS-B
Sat 09:24:43 PM 30.8341 -95.8452 126° Southeast 506 582 33,000  Level FlightAware ADS-B
Sat 09:25:13 PM 30.7921 -95.7777 126° Southeast 505 581 33,000  Level FlightAware ADS-B
Sat 09:25:35 PM 30.7613 -95.7314 128° Southeast 504 580 33,000  Level FlightAware ADS-B
Sat 09:25:43 PM 30.7486 -95.7141 131° Southeast 504 580 33,000  Level FlightAware ADS-B
Sat 09:26:03 PM 30.7170 -95.6745 133° Southeast 506 582 33,000  Level FlightAware ADS-B
Sat 09:26:34 PM 30.6657 -95.6170 136° Southeast 506 582 33,000  Level FlightAware ADS-B
Sat 09:27:05 PM 30.6135 -95.5597 137° Southeast 506 582 33,000  Level FlightAware ADS-B
Sat 09:27:35 PM 30.5618 -95.5030 137° Southeast 506 582 33,000  Level FlightAware ADS-B
Sat 09:28:10 PM 30.5029 -95.4385 137° Southeast 506 582 33,000  Level FlightAware ADS-B
Sat 09:28:40 PM 30.4515 -95.3820 137° Southeast 506 582 33,000  Level FlightAware ADS-B
Sat 09:29:10 PM 30.4001 -95.3258 137° Southeast 507 583 33,000  Level FlightAware ADS-B
Sat 09:29:40 PM 30.3481 -95.2690 137° Southeast 509 586 33,000  Level FlightAware ADS-B
Sat 09:30:11 PM 30.2961 -95.2122 137° Southeast 509 586 33,000  Level FlightAware ADS-B
Sat 09:30:42 PM 30.2421 -95.1533 137° Southeast 509 586 33,000  Level FlightAware ADS-B
Sat 09:31:13 PM 30.1902 -95.0968 137° Southeast 510 587 33,000  Level FlightAware ADS-B
Sat 09:31:43 PM 30.1381 -95.0404 137° Southeast 509 586 33,000  Level FlightAware ADS-B
Sat 09:32:13 PM 30.0862 -94.9841 137° Southeast 507 583 33,000  Level FlightAware ADS-B
Sat 09:32:43 PM 30.0350 -94.9286 137° Southeast 505 581 33,000  Level FlightAware ADS-B
Sat 09:33:14 PM 29.9835 -94.8729 137° Southeast 504 580 33,000  Level FlightAware ADS-B
Sat 09:33:44 PM 29.9324 -94.8177 137° Southeast 504 580 33,000  Level FlightAware ADS-B
Sat 09:34:14 PM 29.8808 -94.7622 137° Southeast 504 580 33,000  Level FlightAware ADS-B
Sat 09:34:44 PM 29.8292 -94.7067 137° Southeast 506 582 33,000  Level FlightAware ADS-B
Sat 09:35:15 PM 29.7770 -94.6507 137° Southeast 512 589 33,000  Level FlightAware ADS-B
Sat 09:35:45 PM 29.7232 -94.5929 137° Southeast 514 592 33,000  Level FlightAware ADS-B
Sat 09:36:15 PM 29.6711 -94.5371 137° Southeast 514 592 33,000  Level FlightAware ADS-B
Sat 09:36:46 PM 29.6184 -94.4807 137° Southeast 514 592 33,000  Level FlightAware ADS-B
Sat 09:37:16 PM 29.5656 -94.4243 137° Southeast 512 589 33,000  Level FlightAware ADS-B
Sat 09:37:46 PM 29.5135 -94.3688 137° Southeast 512 589 33,000  Level FlightAware ADS-B
Sat 09:38:16 PM 29.4612 -94.3131 137° Southeast 510 587 33,000  Level FlightAware ADS-B
Sat 09:38:47 PM 29.4083 -94.2568 137° Southeast 511 588 33,000  Level FlightAware ADS-B
Sat 09:39:18 PM 29.3540 -94.1989 137° Southeast 509 586 33,000  Level FlightAware ADS-B
Sat 09:39:49 PM 29.3013 -94.1429 137° Southeast 509 586 33,000  Level FlightAware ADS-B
Sat 09:40:19 PM 29.2489 -94.0873 137° Southeast 510 587 33,000  Level FlightAware ADS-B
Sat 09:40:49 PM 29.1970 -94.0322 137° Southeast 512 589 33,000  Level FlightAware ADS-B
Sat 09:41:20 PM 29.1435 -93.9755 137° Southeast 513 590 33,000  Level FlightAware ADS-B
Sat 09:42:21 PM 29.1110 -93.9250 126° Southeast 510 587 33,000  Level FlightAware ADS-B
Sat 09:42:58 PM 29.0570 -93.8660 136° Southeast 510 587 33,000  Level FlightAware ADS-B
Sat 09:43:36 PM 29.0020 -93.8050 136° Southeast 510 587 33,000  Level FlightAware ADS-B
Sat 09:44:12 PM 28.9500 -93.7480 136° Southeast 510 587 33,000  Level FlightAware ADS-B
Sat 09:44:48 PM 28.8980 -93.6910 136° Southeast 510 587 33,000  Level FlightAware ADS-B
Sat 09:45:24 PM 28.8470 -93.6340 136° Southeast 510 587 33,000  Level FlightAware ADS-B
Sat 09:46:01 PM 28.7930 -93.5750 136° Southeast 510 587 33,000  Level FlightAware ADS-B
Sat 09:46:37 PM 28.7410 -93.5170 136° Southeast 510 587 33,000  Level FlightAware ADS-B
Sat 09:47:13 PM 28.6890 -93.4600 136° Southeast 510 587 33,000  Level FlightAware ADS-B
Sat 09:47:49 PM 28.6370 -93.4030 136° Southeast 510 587 33,000  Level FlightAware ADS-B
Sat 09:48:53 PM 28.3692 -93.1658 136° Southeast 505 581 33,000 -48 Level Houston Center
Sat 09:49:53 PM 28.2656 -93.0572 137° Southeast 507 583 32,900 -50 Descending Houston Center
Sat 09:50:54 PM 28.1611 -92.9503 138° Southeast 507 583 32,900 15 Level Houston Center
Sat 09:56:27 PM 27.5668 -92.3437 138° Southeast 508 585 33,000 Climbing FlightAware ADS-B
Sat 10:03:00 PM 26.8941 -91.7151 144° Southeast  Level FlightAware Approximate
Sat 10:04:00 PM 26.7852 -91.6282 145° Southeast  Level FlightAware Approximate
Sat 10:05:00 PM 26.6761 -91.5415 145° Southeast  Level FlightAware Approximate
Sat 10:06:00 PM 26.5671 -91.4549 145° Southeast  Level FlightAware Approximate
Sat 10:07:00 PM 26.4579 -91.3686 145° Southeast  Level FlightAware Approximate
Sat 10:08:00 PM 26.3487 -91.2823 145° Southeast  Level FlightAware Approximate
Sat 10:09:00 PM 26.2390 -91.1971 145° Southeast  Level FlightAware Approximate
Sat 10:10:00 PM 26.1293 -91.1119 145° Southeast  Level FlightAware Approximate
Sat 10:11:00 PM 26.0194 -91.0269 145° Southeast  Level FlightAware Approximate
Sat 10:12:00 PM 25.9096 -90.9421 145° Southeast  Level FlightAware Approximate
Sat 10:13:00 PM 25.7999 -90.8571 145° Southeast  Level FlightAware Approximate
Sat 10:14:00 PM 25.6907 -90.7714 145° Southeast  Level FlightAware Approximate
Sat 10:15:00 PM 25.5814 -90.6859 145° Southeast  Level FlightAware Approximate
Sat 10:16:00 PM 25.4721 -90.6005 145° Southeast  Level FlightAware Approximate
Sat 10:17:00 PM 25.3627 -90.5153 145° Southeast  Level FlightAware Approximate
Sat 10:18:00 PM 25.2533 -90.4303 145° Southeast  Level FlightAware Approximate
Sat 10:19:00 PM 25.1438 -90.3454 145° Southeast  Level FlightAware Approximate
Sat 10:20:00 PM 25.0342 -90.2607 145° Southeast  Level FlightAware Approximate
Sat 10:21:00 PM 24.9247 -90.1761 145° Southeast  Level FlightAware Approximate
Sat 10:22:00 PM 24.8151 -90.0916 145° Southeast  Level FlightAware Approximate
Sat 10:23:00 PM 24.7054 -90.0073 145° Southeast  Level FlightAware Approximate
Sat 10:24:00 PM 24.5957 -89.9232 145° Southeast  Level FlightAware Approximate
Sat 10:25:00 PM 24.4871 -89.8371 138° Southeast  Level FlightAware Approximate
Sat 10:25:44 PM 24.2880 -89.6910 138° Southeast 509 586 33,000  Level FlightAware ADS-B
Sat 10:26:17 PM 24.2360 -89.6510 145° Southeast 507 583 33,000  Level FlightAware ADS-B
Sat 10:26:51 PM 24.1660 -89.5990 146° Southeast 509 586 33,000  Level FlightAware ADS-B
Sat 10:27:22 PM 24.0980 -89.5480 146° Southeast 508 585 33,000  Level FlightAware ADS-B
Sat 10:28:06 PM 24.0060 -89.4780 145° Southeast 509 586 33,000  Level FlightAware ADS-B
Sat 10:28:43 PM 23.9390 -89.4280 146° Southeast 509 586 33,000  Level FlightAware ADS-B
Sat 10:29:30 PM 23.8480 -89.3590 145° Southeast 508 585 33,000  Level FlightAware ADS-B
Sat 10:29:59 PM 23.7860 -89.3130 146° Southeast 506 582 33,000  Level FlightAware ADS-B
Sat 10:30:39 PM 23.7040 -89.2520 146° Southeast 503 579 33,000  Level FlightAware ADS-B
Sat 10:31:21 PM 23.6320 -89.1970 145° Southeast 503 579 33,000  Level FlightAware ADS-B
Sat 10:31:52 PM 23.5660 -89.1480 146° Southeast 505 581 33,000  Level FlightAware ADS-B
Sat 10:32:28 PM 23.4960 -89.0960 146° Southeast 504 580 33,000  Level FlightAware ADS-B
Sat 10:33:02 PM 23.4270 -89.0440 145° Southeast 504 580 33,000  Level FlightAware ADS-B
Sat 10:33:39 PM 23.3610 -88.9950 146° Southeast 504 580 33,000  Level FlightAware ADS-B
Sat 10:34:16 PM 23.2900 -88.9420 146° Southeast 506 582 33,000  Level FlightAware ADS-B
Sat 10:34:52 PM 23.2200 -88.8890 145° Southeast 506 582 33,000  Level FlightAware ADS-B
Sat 10:35:32 PM 23.1380 -88.8280 146° Southeast 504 580 33,000  Level FlightAware ADS-B
Sat 10:36:09 PM 23.0710 -88.7780 146° Southeast 504 580 33,000  Level FlightAware ADS-B
Sat 10:36:47 PM 22.9970 -88.7240 146° Southeast 502 578 33,000  Level FlightAware ADS-B
Sat 10:37:21 PM 22.9400 -88.6820 146° Southeast 504 580 33,000  Level FlightAware ADS-B
Sat 10:37:56 PM 22.8660 -88.6270 146° Southeast 505 581 33,000  Level FlightAware ADS-B
Sat 10:38:32 PM 22.7840 -88.5660 146° Southeast 506 582 33,000  Level FlightAware ADS-B
Sat 10:39:10 PM 22.6740 -88.4850 146° Southeast 503 579 33,000  Level FlightAware ADS-B
Sat 10:39:46 PM 22.6050 -88.4320 145° Southeast 504 580 33,000  Level FlightAware ADS-B
Sat 10:40:18 PM 22.5490 -88.3800 139° Southeast 506 582 33,000  Level FlightAware ADS-B
Sat 10:40:54 PM 22.4870 -88.3170 137° Southeast 503 579 33,000  Level FlightAware ADS-B
Sat 10:41:32 PM 22.4630 -88.2920 136° Southeast 503 579 33,000  Level FlightAware ADS-B
Sat 10:42:09 PM 22.3930 -88.2210 137° Southeast 504 580 33,000  Level FlightAware ADS-B
Sat 10:42:42 PM 22.3410 -88.1690 137° Southeast 505 581 33,000  Level FlightAware ADS-B
Sat 10:43:22 PM 22.2810 -88.1070 136° Southeast 506 582 33,000  Level FlightAware ADS-B
Sat 10:43:58 PM 22.2250 -88.0500 137° Southeast 506 582 33,000  Level FlightAware ADS-B
Sat 10:44:35 PM 22.1630 -87.9880 137° Southeast 504 580 33,000  Level FlightAware ADS-B
Sat 10:45:10 PM 22.0960 -87.9200 137° Southeast 504 580 33,000  Level FlightAware ADS-B
Sat 10:45:44 PM 22.0460 -87.8700 137° Southeast 505 581 33,000  Level FlightAware ADS-B
Sat 10:46:22 PM 21.9740 -87.7980 137° Southeast 503 579 33,000  Level FlightAware ADS-B
Sat 10:46:59 PM 21.9190 -87.7420 137° Southeast 503 579 33,000  Level FlightAware ADS-B
Sat 10:47:30 PM 21.8610 -87.6840 137° Southeast 503 579 33,000  Level FlightAware ADS-B
Sat 10:48:05 PM 21.8040 -87.6270 137° Southeast 505 581 33,000  Level FlightAware ADS-B
Sat 10:48:41 PM 21.7380 -87.5620 138° Southeast 507 583 33,000  Level FlightAware ADS-B
Sat 10:49:15 PM 21.6870 -87.5120 138° Southeast 508 585 33,000  Level FlightAware ADS-B
Sat 10:49:49 PM 21.5750 -87.4000 137° Southeast 509 586 33,000  Level FlightAware ADS-B
Sat 10:50:30 PM 21.5000 -87.3270 138° Southeast 508 585 33,000  Level FlightAware ADS-B
Sat 10:51:01 PM 21.4470 -87.2740 137° Southeast 508 585 33,000  Level FlightAware ADS-B
Sat 10:51:37 PM 21.3840 -87.2120 137° Southeast 507 583 33,000  Level FlightAware ADS-B
Sat 10:52:14 PM 21.3220 -87.1510 137° Southeast 507 583 33,000  Level FlightAware ADS-B
Sat 10:52:49 PM 21.2610 -87.0900 137° Southeast 507 583 33,000  Level FlightAware ADS-B
Sat 10:53:21 PM 21.2050 -87.0350 138° Southeast 506 582 33,000  Level FlightAware ADS-B
Sat 10:53:57 PM 21.1420 -86.9740 138° Southeast 506 582 33,000  Level FlightAware ADS-B
Sat 10:54:35 PM 21.0770 -86.9100 137° Southeast 506 582 33,000  Level FlightAware ADS-B
Sat 10:55:06 PM 21.0240 -86.8580 138° Southeast 507 583 33,000  Level FlightAware ADS-B
Sat 10:55:43 PM 20.9590 -86.7950 138° Southeast 508 585 33,000  Level FlightAware ADS-B
Sat 10:56:19 PM 20.8970 -86.7340 137° Southeast 509 586 33,000  Level FlightAware ADS-B
Sat 10:56:51 PM 20.8410 -86.6810 139° Southeast 509 586 33,000  Level FlightAware ADS-B
Sat 10:57:27 PM 20.7780 -86.6190 137° Southeast 510 587 33,000  Level FlightAware ADS-B
Sat 10:58:03 PM 20.7140 -86.5570 138° Southeast 511 588 33,000  Level FlightAware ADS-B
Sat 10:58:35 PM 20.6590 -86.5040 138° Southeast 511 588 33,000  Level FlightAware ADS-B
Sat 10:59:13 PM 20.5910 -86.4380 138° Southeast 511 588 33,000  Level FlightAware ADS-B
Sat 10:59:47 PM 20.5330 -86.3820 138° Southeast 512 589 33,000  Level FlightAware ADS-B
Sat 11:00:31 PM 20.4620 -86.3120 137° Southeast 512 589 33,000  Level FlightAware ADS-B
Sat 11:01:07 PM 20.4090 -86.2600 137° Southeast 512 589 33,000  Level FlightAware ADS-B
Sat 11:01:48 PM 20.3340 -86.1880 138° Southeast 507 583 33,000  Level FlightAware ADS-B
Sat 11:02:24 PM 20.2810 -86.1360 137° Southeast 507 583 33,000  Level FlightAware ADS-B
Sat 11:03:03 PM 20.1890 -86.0510 139° Southeast 504 580 33,000  Level FlightAware ADS-B
Sat 11:03:37 PM 20.1310 -85.9960 138° Southeast 501 577 33,000  Level FlightAware ADS-B
Sat 11:04:15 PM 20.0660 -85.9340 138° Southeast 501 577 33,000  Level FlightAware ADS-B
Sat 11:04:47 PM 20.0110 -85.8810 138° Southeast 502 578 33,000  Level FlightAware ADS-B
Sat 11:05:23 PM 19.9470 -85.8210 139° Southeast 502 578 33,000  Level FlightAware ADS-B
Sat 11:06:00 PM 19.8850 -85.7620 138° Southeast 501 577 33,000  Level FlightAware ADS-B
Sat 11:06:35 PM 19.8230 -85.7040 139° Southeast 501 577 33,000  Level FlightAware ADS-B
Sat 11:07:07 PM 19.7670 -85.6510 138° Southeast 502 578 33,000  Level FlightAware ADS-B
Sat 11:07:43 PM 19.7050 -85.5920 138° Southeast 502 578 33,000  Level FlightAware ADS-B
Sat 11:08:24 PM 19.6350 -85.5270 139° Southeast 502 578 33,000  Level FlightAware ADS-B
Sat 11:09:18 PM 19.5480 -85.4450 138° Southeast 504 580 33,000  Level FlightAware ADS-B
Sat 11:09:55 PM 19.4770 -85.3790 139° Southeast 502 578 33,000  Level FlightAware ADS-B
Sat 11:10:33 PM 19.4080 -85.3140 138° Southeast 500 575 33,000  Level FlightAware ADS-B
Sat 11:11:05 PM 19.3520 -85.2620 139° Southeast 500 575 33,000  Level FlightAware ADS-B
Sat 11:11:46 PM 19.2970 -85.2100 138° Southeast 498 573 33,000  Level FlightAware ADS-B
Sat 11:12:26 PM 19.2390 -85.1550 138° Southeast 498 573 33,000  Level FlightAware ADS-B
Sat 11:13:02 PM 19.1860 -85.1050 138° Southeast 498 573 33,000  Level FlightAware ADS-B
Sat 11:13:38 PM 19.1340 -85.0550 138° Southeast 498 573 33,000  Level FlightAware ADS-B
Sat 11:14:14 PM 19.0810 -85.0050 138° Southeast 498 573 33,000  Level FlightAware ADS-B
Sat 11:14:52 PM 19.0260 -84.9520 138° Southeast 498 573 33,000  Level FlightAware ADS-B
Sat 11:15:28 PM 18.9740 -84.9020 138° Southeast 498 573 33,000  Level FlightAware ADS-B
Sat 11:16:04 PM 18.9210 -84.8530 139° Southeast 498 573 33,000  Level FlightAware ADS-B
Sat 11:16:40 PM 18.8690 -84.8030 138° Southeast 498 573 33,000  Level FlightAware ADS-B
Sat 11:17:16 PM 18.8170 -84.7530 138° Southeast 498 573 33,000  Level FlightAware ADS-B
Sat 11:17:52 PM 18.7640 -84.7030 138° Southeast 498 573 33,000  Level FlightAware ADS-B
Sat 11:18:28 PM 18.7120 -84.6530 138° Southeast 498 573 33,000  Level FlightAware ADS-B
Sat 11:19:04 PM 18.6590 -84.6030 138° Southeast 498 573 33,000  Level FlightAware ADS-B
Sat 11:19:40 PM 18.6070 -84.5540 138° Southeast 498 573 33,000  Level FlightAware ADS-B
Sat 11:20:16 PM 18.5550 -84.5040 138° Southeast 498 573 33,000  Level FlightAware ADS-B
Sat 11:20:53 PM 18.5010 -84.4530 138° Southeast 498 573 33,000  Level FlightAware ADS-B
Sat 11:21:29 PM 18.4480 -84.4030 138° Southeast 498 573 33,000  Level FlightAware ADS-B
Sat 11:24:00 PM 18.2009 -84.1611 137° Southeast  Level Estimated
Sat 11:25:00 PM 18.1026 -84.0652 137° Southeast  Level Estimated
Sat 11:26:00 PM 18.0043 -83.9694 137° Southeast  Level Estimated
Sat 11:27:00 PM 17.9059 -83.8736 137° Southeast  Level Estimated
Sat 11:28:00 PM 17.8075 -83.7780 137° Southeast  Level Estimated
Sat 11:29:00 PM 17.7090 -83.6825 137° Southeast  Level Estimated
Sat 11:30:00 PM 17.6105 -83.5871 137° Southeast  Level Estimated
Sat 11:31:00 PM 17.5119 -83.4918 137° Southeast  Level Estimated
Sat 11:32:00 PM 17.4133 -83.3967 137° Southeast  Level Estimated
Sat 11:33:00 PM 17.3146 -83.3016 137° Southeast  Level Estimated
Sat 11:34:00 PM 17.2160 -83.2066 137° Southeast  Level Estimated
Sat 11:35:00 PM 17.1172 -83.1117 137° Southeast  Level Estimated
Sat 11:36:00 PM 17.0184 -83.0169 137° Southeast  Level Estimated
Sat 11:37:00 PM 16.9196 -82.9222 137° Southeast  Level Estimated
Sat 11:38:00 PM 16.8207 -82.8277 138° Southeast  Level Estimated
Sat 11:39:00 PM 16.7218 -82.7332 138° Southeast  Level Estimated
Sat 11:40:00 PM 16.6228 -82.6388 138° Southeast  Level Estimated
Sat 11:41:00 PM 16.5238 -82.5445 138° Southeast  Level Estimated
Sat 11:42:00 PM 16.4248 -82.4503 138° Southeast  Level Estimated
Sat 11:43:00 PM 16.3257 -82.3562 138° Southeast  Level Estimated
Sat 11:44:00 PM 16.2266 -82.2622 138° Southeast  Level Estimated
Sat 11:45:00 PM 16.1274 -82.1683 138° Southeast  Level Estimated
Sat 11:46:00 PM 16.0282 -82.0745 138° Southeast  Level Estimated
Sat 11:47:00 PM 15.9290 -81.9808 138° Southeast  Level Estimated
Sat 11:48:00 PM 15.8297 -81.8871 138° Southeast  Level Estimated
Sat 11:49:00 PM 15.7303 -81.7936 138° Southeast  Level Estimated
Sat 11:50:00 PM 15.6310 -81.7002 138° Southeast  Level Estimated
Sat 11:51:00 PM 15.5316 -81.6068 138° Southeast  Level Estimated
Sat 11:52:00 PM 15.4321 -81.5136 138° Southeast  Level Estimated
Sat 11:53:00 PM 15.3326 -81.4204 138° Southeast  Level Estimated
Sat 11:54:00 PM 15.2331 -81.3273 138° Southeast  Level Estimated
Sat 11:55:00 PM 15.1335 -81.2343 138° Southeast  Level Estimated
Sat 11:56:00 PM 15.0339 -81.1414 138° Southeast  Level Estimated
Sat 11:57:00 PM 14.9343 -81.0486 138° Southeast  Level Estimated
Sat 11:58:00 PM 14.8346 -80.9558 138° Southeast  Level Estimated
Sat 11:59:00 PM 14.7349 -80.8632 138° Southeast  Level Estimated
Sun 12:00:00 AM 14.6351 -80.7706 138° Southeast  Level Estimated
Sun 12:01:00 AM 14.5353 -80.6781 138° Southeast  Level Estimated
Sun 12:02:00 AM 14.4355 -80.5857 138° Southeast  Level Estimated
Sun 12:03:00 AM 14.3356 -80.4934 138° Southeast  Level Estimated
Sun 12:04:00 AM 14.2357 -80.4012 138° Southeast  Level Estimated
Sun 12:05:00 AM 14.1358 -80.3091 138° Southeast  Level Estimated
Sun 12:06:00 AM 14.0358 -80.2170 138° Southeast  Level Estimated
Sun 12:07:00 AM 13.9358 -80.1250 138° Southeast  Level Estimated
Sun 12:08:00 AM 13.8358 -80.0331 138° Southeast  Level Estimated
Sun 12:09:00 AM 13.7357 -79.9413 138° Southeast  Level Estimated
Sun 12:10:00 AM 13.6356 -79.8495 138° Southeast  Level Estimated
Sun 12:11:00 AM 13.5355 -79.7578 138° Southeast  Level Estimated
Sun 12:12:00 AM 13.4353 -79.6662 138° Southeast  Level Estimated
Sun 12:13:00 AM 13.3349 -79.5745 138° Southeast  Level Estimated
Sun 12:14:00 AM 13.2345 -79.4829 138° Southeast  Level Estimated
Sun 12:15:00 AM 13.1341 -79.3914 138° Southeast  Level Estimated
Sun 12:16:00 AM 13.0336 -79.2999 138° Southeast  Level Estimated
Sun 12:17:00 AM 12.9331 -79.2085 138° Southeast  Level Estimated
Sun 12:18:00 AM 12.8325 -79.1172 138° Southeast  Level Estimated
Sun 12:19:00 AM 12.7319 -79.0260 138° Southeast  Level Estimated
Sun 12:20:00 AM 12.6313 -78.9348 139° Southeast  Level Estimated
Sun 12:21:00 AM 12.5307 -78.8437 139° Southeast  Level Estimated
Sun 12:22:00 AM 12.4300 -78.7527 139° Southeast  Level Estimated
Sun 12:23:00 AM 12.3293 -78.6618 139° Southeast  Level Estimated
Sun 12:24:00 AM 12.2286 -78.5709 139° Southeast  Level Estimated
Sun 12:25:00 AM 12.1278 -78.4801 139° Southeast  Level Estimated
Sun 12:26:00 AM 12.0270 -78.3893 139° Southeast  Level Estimated
Sun 12:27:00 AM 11.9262 -78.2987 139° Southeast  Level Estimated
Sun 12:28:00 AM 11.8254 -78.2080 139° Southeast  Level Estimated
Sun 12:29:00 AM 11.7245 -78.1175 139° Southeast  Level Estimated
Sun 12:30:00 AM 11.6236 -78.0270 139° Southeast  Level Estimated
Sun 12:31:00 AM 11.5226 -77.9366 139° Southeast  Level Estimated
Sun 12:32:00 AM 11.4217 -77.8463 139° Southeast  Level Estimated
Sun 12:33:00 AM 11.3207 -77.7560 139° Southeast  Level Estimated
Sun 12:33:57 AM 10.9660 -77.4210 139° Southeast 479 551 33,000  Level FlightAware ADS-B
Sun 12:34:00 AM 11.2197 -77.6658 139° Southeast  Level Estimated
Sun 12:34:32 AM 10.9080 -77.3700 139° Southeast 477 549 33,000  Level FlightAware ADS-B
Sun 12:35:07 AM 10.8520 -77.3180 138° Southeast 471 542 33,000  Level FlightAware ADS-B
Sun 12:35:42 AM 10.7990 -77.2680 137° Southeast 469 540 33,000  Level FlightAware ADS-B
Sun 12:36:27 AM 10.7320 -77.2030 136° Southeast 470 541 33,000  Level FlightAware ADS-B
Sun 12:37:03 AM 10.6840 -77.1560 136° Southeast 470 541 33,000  Level FlightAware ADS-B
Sun 12:37:39 AM 10.6360 -77.1090 136° Southeast 470 541 33,000  Level FlightAware ADS-B
Sun 12:38:17 AM 10.5430 -77.0290 140° Southeast 468 539 33,000  Level FlightAware ADS-B
Sun 12:38:58 AM 10.4770 -76.9680 138° Southeast 535 616 33,000  Level FlightAware ADS-B
Sun 12:39:37 AM 10.4140 -76.9090 137° Southeast 466 536 33,000  Level FlightAware ADS-B
Sun 12:40:12 AM 10.3600 -76.8590 138° Southeast 466 536 33,000  Level FlightAware ADS-B
Sun 12:40:47 AM 10.3040 -76.8070 138° Southeast 468 539 33,000  Level FlightAware ADS-B
Sun 12:41:44 AM 10.2080 -76.7180 138° Southeast 475 547 33,000  Level FlightAware ADS-B
Sun 12:42:43 AM 10.1130 -76.6300 138° Southeast 476 548 33,000  Level FlightAware ADS-B
Sun 12:43:18 AM 10.0620 -76.5830 138° Southeast 476 548 33,000  Level FlightAware ADS-B
Sun 12:43:49 AM 10.0070 -76.5310 137° Southeast 475 547 33,000  Level FlightAware ADS-B
Sun 12:44:24 AM 9.9490 -76.4780 138° Southeast 475 547 33,000  Level FlightAware ADS-B
Sun 12:45:00 AM 9.8930 -76.4260 138° Southeast 476 548 33,000  Level FlightAware ADS-B
Sun 12:45:35 AM 9.8450 -76.3810 137° Southeast 476 548 33,000  Level FlightAware ADS-B
Sun 12:46:11 AM 9.7760 -76.3180 138° Southeast 476 548 33,000  Level FlightAware ADS-B
Sun 12:46:44 AM 9.7270 -76.2720 137° Southeast 475 547 33,000  Level FlightAware ADS-B
Sun 12:47:16 AM 9.6740 -76.2230 138° Southeast 466 536 33,000  Level FlightAware ADS-B
Sun 12:47:54 AM 9.6070 -76.1620 138° Southeast 472 543 33,000  Level FlightAware ADS-B
Sun 12:48:34 AM 9.5440 -76.1030 137° Southeast 471 542 33,000 343 Level FlightAware ADS-B
Sun 12:49:04 AM 9.4970 -76.0600 138° Southeast 473 544 33,400 1,114 Climbing FlightAware ADS-B
Sun 12:49:44 AM 9.4280 -75.9970 138° Southeast 474 545 34,300 1,120 Climbing FlightAware ADS-B
Sun 12:50:19 AM 9.3740 -75.9470 138° Southeast 477 549 34,800 646 Climbing FlightAware ADS-B
Sun 12:50:49 AM 9.3260 -75.9030 138° Southeast 476 548 35,000 185 Climbing FlightAware ADS-B
Sun 12:51:24 AM 9.2680 -75.8500 138° Southeast 476 548 35,000  Level FlightAware ADS-B
Sun 12:52:00 AM 9.2100 -75.7960 137° Southeast 476 548 35,000  Level FlightAware ADS-B
Sun 12:52:35 AM 9.1560 -75.7470 138° Southeast 474 545 35,000  Level FlightAware ADS-B
Sun 12:53:10 AM 9.0950 -75.6900 137° Southeast 476 548 35,000  Level FlightAware ADS-B
Sun 12:53:49 AM 9.0410 -75.6410 138° Southeast 476 548 35,000  Level FlightAware ADS-B
Sun 12:54:25 AM 8.9910 -75.5950 138° Southeast 476 548 35,000  Level FlightAware ADS-B
Sun 12:55:05 AM 8.9160 -75.5260 138° Southeast 475 547 35,000  Level FlightAware ADS-B
Sun 12:55:50 AM 8.8380 -75.4550 138° Southeast 474 545 35,000  Level FlightAware ADS-B
Sun 12:56:30 AM 8.7720 -75.3940 138° Southeast 474 545 35,000  Level FlightAware ADS-B
Sun 12:57:00 AM 8.7210 -75.3470 138° Southeast 474 545 35,000  Level FlightAware ADS-B
Sun 12:57:35 AM 8.6610 -75.2920 138° Southeast 473 544 35,000  Level FlightAware ADS-B
Sun 12:58:15 AM 8.6050 -75.2410 138° Southeast 474 545 35,000  Level FlightAware ADS-B
Sun 12:58:50 AM 8.5410 -75.1820 138° Southeast 474 545 35,000  Level FlightAware ADS-B
Sun 12:59:20 AM 8.4920 -75.1370 138° Southeast 472 543 35,000  Level FlightAware ADS-B
Sun 12:59:55 AM 8.4340 -75.0840 138° Southeast 473 544 35,000  Level FlightAware ADS-B
Sun 01:00:30 AM 8.3820 -75.0370 138° Southeast 473 544 35,000  Level FlightAware ADS-B
Sun 01:01:05 AM 8.3220 -74.9820 138° Southeast 473 544 35,000  Level FlightAware ADS-B
Sun 01:01:40 AM 8.2660 -74.9310 138° Southeast 474 545 35,000  Level FlightAware ADS-B
Sun 01:02:16 AM 8.2080 -74.8780 138° Southeast 472 543 35,000  Level FlightAware ADS-B
Sun 01:02:50 AM 8.1520 -74.8260 137° Southeast 474 545 35,000  Level FlightAware ADS-B
Sun 01:03:30 AM 8.0860 -74.7670 138° Southeast 474 545 35,000  Level FlightAware ADS-B
Sun 01:04:00 AM 8.0370 -74.7220 138° Southeast 474 545 35,000  Level FlightAware ADS-B
Sun 01:04:35 AM 7.9850 -74.6750 138° Southeast 473 544 35,000  Level FlightAware ADS-B
Sun 01:05:10 AM 7.9230 -74.6180 138° Southeast 471 542 35,000  Level FlightAware ADS-B
Sun 01:05:50 AM 7.8580 -74.5590 138° Southeast 468 539 35,000  Level FlightAware ADS-B
Sun 01:06:20 AM 7.8100 -74.5150 138° Southeast 467 537 35,000  Level FlightAware ADS-B
Sun 01:06:55 AM 7.7560 -74.4660 138° Southeast 467 537 35,000  Level FlightAware ADS-B
Sun 01:07:30 AM 7.6980 -74.4120 137° Southeast 469 540 35,000  Level FlightAware ADS-B
Sun 01:08:10 AM 7.6360 -74.3570 139° Southeast 470 541 35,000  Level FlightAware ADS-B
Sun 01:08:40 AM 7.5840 -74.3100 138° Southeast 470 541 35,000  Level FlightAware ADS-B
Sun 01:09:15 AM 7.5280 -74.2580 137° Southeast 470 541 35,000  Level FlightAware ADS-B
Sun 01:09:55 AM 7.4630 -74.2000 138° Southeast 469 540 35,000  Level FlightAware ADS-B
Sun 01:10:25 AM 7.4150 -74.1560 138° Southeast 467 537 35,000  Level FlightAware ADS-B
Sun 01:11:00 AM 7.3640 -74.1090 138° Southeast 468 539 35,000  Level FlightAware ADS-B
Sun 01:11:49 AM 7.3000 -74.0510 138° Southeast 469 540 35,000  Level FlightAware ADS-B
Sun 01:12:25 AM 7.2500 -74.0060 138° Southeast 469 540 35,000  Level FlightAware ADS-B
Sun 01:13:00 AM 7.1650 -73.9290 138° Southeast 35,000  Level FlightAware ADS-B
Sun 01:13:50 AM 7.0920 -73.8630 138° Southeast 468 539 35,000  Level FlightAware ADS-B
Sun 01:14:26 AM 7.0420 -73.8180 138° Southeast 468 539 35,000  Level FlightAware ADS-B
Sun 01:15:00 AM 6.9610 -73.7690 149° Southeast 470 541 35,000  Level FlightAware ADS-B
Sun 01:15:35 AM 6.8940 -73.7330 152° Southeast 470 541 35,000  Level FlightAware ADS-B
Sun 01:16:10 AM 6.8290 -73.6970 151° Southeast 471 542 35,000  Level FlightAware ADS-B
Sun 01:16:45 AM 6.7580 -73.6590 152° Southeast 471 542 35,000  Level FlightAware ADS-B
Sun 01:17:21 AM 6.6900 -73.6220 152° Southeast 472 543 35,000  Level FlightAware ADS-B
Sun 01:17:56 AM 6.6220 -73.5850 152° Southeast 471 542 35,000  Level FlightAware ADS-B
Sun 01:18:31 AM 6.5540 -73.5490 152° Southeast 470 541 35,000  Level FlightAware ADS-B
Sun 01:19:06 AM 6.4860 -73.5120 152° Southeast 471 542 35,000  Level FlightAware ADS-B
Sun 01:19:42 AM 6.4160 -73.4740 152° Southeast 472 543 35,000  Level FlightAware ADS-B
Sun 01:20:14 AM 6.3560 -73.4420 152° Southeast 472 543 35,000  Level FlightAware ADS-B
Sun 01:20:49 AM 6.2860 -73.4040 152° Southeast 471 542 35,000  Level FlightAware ADS-B
Sun 01:21:26 AM 6.2160 -73.3660 152° Southeast 471 542 35,000  Level FlightAware ADS-B
Sun 01:22:02 AM 6.1460 -73.3280 152° Southeast 471 542 35,000  Level FlightAware ADS-B
Sun 01:22:36 AM 6.0880 -73.2960 151° Southeast 471 542 35,000  Level FlightAware ADS-B
Sun 01:23:12 AM 6.0290 -73.2640 152° Southeast 471 542 35,000  Level FlightAware ADS-B
Sun 01:23:48 AM 5.9710 -73.2310 150° Southeast 471 542 35,000  Level FlightAware ADS-B
Sun 01:24:25 AM 5.9110 -73.1980 151° Southeast 471 542 35,000  Level FlightAware ADS-B
Sun 01:25:01 AM 5.8530 -73.1650 150° Southeast 471 542 35,000  Level FlightAware ADS-B
Sun 01:25:37 AM 5.7940 -73.1330 152° Southeast 471 542 35,000  Level FlightAware ADS-B
Sun 01:26:13 AM 5.7360 -73.1000 150° Southeast 471 542 35,000  Level FlightAware ADS-B
Sun 01:26:35 AM 5.6290 -73.0350 149° Southeast 469 540 35,000  Level FlightAware ADS-B
Sun 01:27:07 AM 5.5710 -72.9920 144° Southeast 470 541 35,000  Level FlightAware ADS-B
Sun 01:27:44 AM 5.5070 -72.9440 143° Southeast 471 542 35,000  Level FlightAware ADS-B
Sun 01:28:19 AM 5.4450 -72.8980 144° Southeast 472 543 35,000  Level FlightAware ADS-B
Sun 01:28:53 AM 5.3870 -72.8530 142° Southeast 473 544 35,000  Level FlightAware ADS-B
Sun 01:29:29 AM 5.3230 -72.8050 143° Southeast 472 543 35,000  Level FlightAware ADS-B
Sun 01:30:04 AM 5.2620 -72.7580 143° Southeast 471 542 35,000  Level FlightAware ADS-B
Sun 01:30:41 AM 5.1990 -72.7110 143° Southeast 471 542 35,000  Level FlightAware ADS-B
Sun 01:31:19 AM 5.1440 -72.6670 141° Southeast 471 542 35,000  Level FlightAware ADS-B
Sun 01:31:55 AM 5.0910 -72.6260 142° Southeast 471 542 35,000  Level FlightAware ADS-B
Sun 01:32:31 AM 5.0390 -72.5850 142° Southeast 471 542 35,000  Level FlightAware ADS-B
Sun 01:33:07 AM 4.9860 -72.5440 142° Southeast 471 542 35,000  Level FlightAware ADS-B
Sun 01:33:43 AM 4.9340 -72.5030 142° Southeast 471 542 35,000  Level FlightAware ADS-B
Sun 01:34:20 AM 4.8800 -72.4600 142° Southeast 471 542 35,000  Level FlightAware ADS-B
Sun 01:34:56 AM 4.8270 -72.4190 142° Southeast 471 542 35,000  Level FlightAware ADS-B
Sun 01:35:32 AM 4.7740 -72.3780 142° Southeast 471 542 35,000  Level FlightAware ADS-B
Sun 01:36:08 AM 4.7220 -72.3370 142° Southeast 471 542 35,000  Level FlightAware ADS-B
Sun 01:36:44 AM 4.6690 -72.2950 142° Southeast 471 542 35,000  Level FlightAware ADS-B
Sun 01:37:20 AM 4.6170 -72.2540 142° Southeast 471 542 35,000  Level FlightAware ADS-B
Sun 01:37:56 AM 4.5640 -72.2130 142° Southeast 471 542 35,000  Level FlightAware ADS-B
Sun 01:38:32 AM 4.5120 -72.1720 142° Southeast 471 542 35,000  Level FlightAware ADS-B
Sun 01:39:08 AM 4.4590 -72.1310 142° Southeast 471 542 35,000  Level FlightAware ADS-B
Sun 01:39:44 AM 4.4070 -72.0890 141° Southeast 471 542 35,000  Level FlightAware ADS-B
Sun 01:40:20 AM 4.3540 -72.0480 142° Southeast 471 542 35,000  Level FlightAware ADS-B
Sun 01:42:00 AM 4.1851 -71.9020 139° Southeast  Level Estimated
Sun 01:43:00 AM 4.0838 -71.8144 139° Southeast  Level Estimated
Sun 01:44:00 AM 3.9824 -71.7268 139° Southeast  Level Estimated
Sun 01:45:00 AM 3.8810 -71.6393 139° Southeast  Level Estimated
Sun 01:46:00 AM 3.7796 -71.5517 139° Southeast  Level Estimated
Sun 01:47:00 AM 3.6783 -71.4642 139° Southeast  Level Estimated
Sun 01:48:00 AM 3.5769 -71.3768 139° Southeast  Level Estimated
Sun 01:49:00 AM 3.4755 -71.2893 139° Southeast  Level Estimated
Sun 01:50:00 AM 3.3741 -71.2019 139° Southeast  Level Estimated
Sun 01:51:00 AM 3.2726 -71.1144 139° Southeast  Level Estimated
Sun 01:52:00 AM 3.1712 -71.0270 139° Southeast  Level Estimated
Sun 01:53:00 AM 3.0698 -70.9396 139° Southeast  Level Estimated
Sun 01:54:00 AM 2.9683 -70.8522 139° Southeast  Level Estimated
Sun 01:55:00 AM 2.8669 -70.7649 139° Southeast  Level Estimated
Sun 01:56:00 AM 2.7654 -70.6775 139° Southeast  Level Estimated
Sun 01:57:00 AM 2.6640 -70.5902 139° Southeast  Level Estimated
Sun 01:58:00 AM 2.5625 -70.5029 139° Southeast  Level Estimated
Sun 01:59:00 AM 2.4610 -70.4156 139° Southeast  Level Estimated
Sun 02:00:00 AM 2.3596 -70.3283 139° Southeast  Level Estimated
Sun 02:01:00 AM 2.2581 -70.2410 139° Southeast  Level Estimated
Sun 02:02:00 AM 2.1566 -70.1538 139° Southeast  Level Estimated
Sun 02:03:00 AM 2.0551 -70.0665 139° Southeast  Level Estimated
Sun 02:04:00 AM 1.9536 -69.9793 139° Southeast  Level Estimated
Sun 02:05:00 AM 1.8521 -69.8920 139° Southeast  Level Estimated
Sun 02:06:00 AM 1.7506 -69.8048 139° Southeast  Level Estimated
Sun 02:07:00 AM 1.6491 -69.7176 139° Southeast  Level Estimated
Sun 02:08:00 AM 1.5476 -69.6304 139° Southeast  Level Estimated
Sun 02:09:00 AM 1.4460 -69.5432 139° Southeast  Level Estimated
Sun 02:10:00 AM 1.3445 -69.4560 139° Southeast  Level Estimated
Sun 02:11:00 AM 1.2430 -69.3689 139° Southeast  Level Estimated
Sun 02:12:00 AM 1.1415 -69.2817 139° Southeast  Level Estimated
Sun 02:13:00 AM 1.0399 -69.1945 139° Southeast  Level Estimated
Sun 02:14:00 AM 0.9384 -69.1074 139° Southeast  Level Estimated
Sun 02:15:00 AM 0.8369 -69.0202 139° Southeast  Level Estimated
Sun 02:16:00 AM 0.7353 -68.9331 139° Southeast  Level Estimated
Sun 02:17:00 AM 0.6338 -68.8459 139° Southeast  Level Estimated
Sun 02:18:00 AM 0.5322 -68.7588 139° Southeast  Level Estimated
Sun 02:19:00 AM 0.4307 -68.6716 139° Southeast  Level Estimated
Sun 02:20:00 AM 0.3292 -68.5845 139° Southeast  Level Estimated
Sun 02:21:00 AM 0.2276 -68.4973 139° Southeast  Level Estimated
Sun 02:22:00 AM 0.1261 -68.4102 139° Southeast  Level Estimated
Sun 02:23:00 AM 0.0245 -68.3231 139° Southeast  Level Estimated
Sun 02:24:00 AM -0.0770 -68.2359 139° Southeast  Level Estimated
Sun 02:25:00 AM -0.1786 -68.1488 139° Southeast  Level Estimated
Sun 02:26:00 AM -0.2801 -68.0617 139° Southeast  Level Estimated
Sun 02:27:00 AM -0.3817 -67.9745 139° Southeast  Level Estimated
Sun 02:28:00 AM -0.4832 -67.8874 139° Southeast  Level Estimated
Sun 02:29:00 AM -0.5847 -67.8003 139° Southeast  Level Estimated
Sun 02:30:00 AM -0.6863 -67.7131 139° Southeast  Level Estimated
Sun 02:31:00 AM -0.7878 -67.6260 139° Southeast  Level Estimated
Sun 02:32:00 AM -0.8893 -67.5388 139° Southeast  Level Estimated
Sun 02:33:00 AM -0.9909 -67.4517 139° Southeast  Level Estimated
Sun 02:34:00 AM -1.0924 -67.3645 139° Southeast  Level Estimated
Sun 02:35:00 AM -1.1940 -67.2773 139° Southeast  Level Estimated
Sun 02:36:00 AM -1.2955 -67.1901 139° Southeast  Level Estimated
Sun 02:37:00 AM -1.3970 -67.1030 139° Southeast  Level Estimated
Sun 02:38:00 AM -1.4985 -67.0158 139° Southeast  Level Estimated
Sun 02:39:00 AM -1.6000 -66.9286 139° Southeast  Level Estimated
Sun 02:40:00 AM -1.7017 -66.8412 139° Southeast  Level Estimated
Sun 02:41:00 AM -1.8034 -66.7539 139° Southeast  Level Estimated
Sun 02:42:00 AM -1.9051 -66.6665 139° Southeast  Level Estimated
Sun 02:43:00 AM -2.0068 -66.5791 139° Southeast  Level Estimated
Sun 02:44:00 AM -2.1085 -66.4917 139° Southeast  Level Estimated
Sun 02:45:00 AM -2.2102 -66.4043 139° Southeast  Level Estimated
Sun 02:46:00 AM -2.3118 -66.3168 139° Southeast  Level Estimated
Sun 02:47:00 AM -2.4135 -66.2294 139° Southeast  Level Estimated
Sun 02:48:00 AM -2.5151 -66.1420 139° Southeast  Level Estimated
Sun 02:49:00 AM -2.6168 -66.0545 139° Southeast  Level Estimated
Sun 02:50:00 AM -2.7184 -65.9670 139° Southeast  Level Estimated
Sun 02:51:00 AM -2.8201 -65.8795 139° Southeast  Level Estimated
Sun 02:52:00 AM -2.9217 -65.7920 139° Southeast  Level Estimated
Sun 02:53:00 AM -3.0233 -65.7045 139° Southeast  Level Estimated
Sun 02:54:00 AM -3.1250 -65.6169 139° Southeast  Level Estimated
Sun 02:55:00 AM -3.2264 -65.5295 139° Southeast  Level Estimated
Sun 02:56:00 AM -3.3278 -65.4421 139° Southeast  Level Estimated
Sun 02:57:00 AM -3.4292 -65.3547 139° Southeast  Level Estimated
Sun 02:58:00 AM -3.5306 -65.2672 139° Southeast  Level Estimated
Sun 02:59:00 AM -3.6320 -65.1797 139° Southeast  Level Estimated
Sun 03:00:00 AM -3.7334 -65.0922 139° Southeast  Level Estimated
Sun 03:01:00 AM -3.8348 -65.0047 139° Southeast  Level Estimated
Sun 03:02:00 AM -3.9362 -64.9172 139° Southeast  Level Estimated
Sun 03:03:00 AM -4.0375 -64.8296 139° Southeast  Level Estimated
Sun 03:04:00 AM -4.1389 -64.7420 139° Southeast  Level Estimated
Sun 03:05:00 AM -4.2402 -64.6544 139° Southeast  Level Estimated
Sun 03:06:00 AM -4.3415 -64.5668 139° Southeast  Level Estimated
Sun 03:07:00 AM -4.4429 -64.4792 139° Southeast  Level Estimated
Sun 03:08:00 AM -4.5442 -64.3915 139° Southeast  Level Estimated
Sun 03:09:00 AM -4.6455 -64.3038 139° Southeast  Level Estimated
Sun 03:10:00 AM -4.7468 -64.2161 139° Southeast  Level Estimated
Sun 03:11:00 AM -4.8481 -64.1283 139° Southeast  Level Estimated
Sun 03:12:00 AM -4.9495 -64.0404 139° Southeast  Level Estimated
Sun 03:13:00 AM -5.0509 -63.9524 139° Southeast  Level Estimated
Sun 03:14:00 AM -5.1524 -63.8644 139° Southeast  Level Estimated
Sun 03:15:00 AM -5.2538 -63.7764 139° Southeast  Level Estimated
Sun 03:16:00 AM -5.3552 -63.6884 139° Southeast  Level Estimated
Sun 03:17:00 AM -5.4566 -63.6003 139° Southeast  Level Estimated
Sun 03:18:00 AM -5.5580 -63.5122 139° Southeast  Level Estimated
Sun 03:19:00 AM -5.6593 -63.4241 139° Southeast  Level Estimated
Sun 03:20:00 AM -5.7607 -63.3359 139° Southeast  Level Estimated
Sun 03:21:00 AM -5.8620 -63.2477 139° Southeast  Level Estimated
Sun 03:22:00 AM -5.9633 -63.1595 139° Southeast  Level Estimated
Sun 03:23:00 AM -6.0647 -63.0713 139° Southeast  Level Estimated
Sun 03:24:00 AM -6.1660 -62.9830 139° Southeast  Level Estimated
Sun 03:25:00 AM -6.2672 -62.8946 139° Southeast  Level Estimated
Sun 03:26:00 AM -6.3685 -62.8063 139° Southeast  Level Estimated
Sun 03:27:00 AM -6.4698 -62.7179 139° Southeast  Level Estimated
Sun 03:28:00 AM -6.5710 -62.6295 139° Southeast  Level Estimated
Sun 03:29:00 AM -6.6722 -62.5410 139° Southeast  Level Estimated
Sun 03:30:00 AM -6.7734 -62.4525 139° Southeast  Level Estimated
Sun 03:31:00 AM -6.8746 -62.3639 139° Southeast  Level Estimated
Sun 03:32:00 AM -6.9758 -62.2754 139° Southeast  Level Estimated
Sun 03:33:00 AM -7.0770 -62.1867 139° Southeast  Level Estimated
Sun 03:34:00 AM -7.1781 -62.0981 139° Southeast  Level Estimated
Sun 03:35:00 AM -7.2792 -62.0094 139° Southeast  Level Estimated
Sun 03:36:00 AM -7.3803 -61.9207 139° Southeast  Level Estimated
Sun 03:37:00 AM -7.4814 -61.8319 139° Southeast  Level Estimated
Sun 03:38:00 AM -7.5825 -61.7431 139° Southeast  Level Estimated
Sun 03:39:00 AM -7.6835 -61.6542 139° Southeast  Level Estimated
Sun 03:40:00 AM -7.7846 -61.5653 139° Southeast  Level Estimated
Sun 03:41:00 AM -7.8856 -61.4764 139° Southeast  Level Estimated
Sun 03:42:00 AM -7.9866 -61.3874 139° Southeast  Level Estimated
Sun 03:43:00 AM -8.0876 -61.2983 139° Southeast  Level Estimated
Sun 03:44:00 AM -8.1885 -61.2093 139° Southeast  Level Estimated
Sun 03:45:00 AM -8.2895 -61.1201 139° Southeast  Level Estimated
Sun 03:46:00 AM -8.3904 -61.0310 139° Southeast  Level Estimated
Sun 03:47:00 AM -8.4913 -60.9418 139° Southeast  Level Estimated
Sun 03:48:00 AM -8.5922 -60.8525 139° Southeast  Level Estimated
Sun 03:49:00 AM -8.6930 -60.7632 139° Southeast  Level Estimated
Sun 03:50:00 AM -8.7939 -60.6738 139° Southeast  Level Estimated
Sun 03:51:00 AM -8.8947 -60.5844 139° Southeast  Level Estimated
Sun 03:52:00 AM -8.9955 -60.4950 139° Southeast  Level Estimated
Sun 03:53:00 AM -9.0962 -60.4055 139° Southeast  Level Estimated
Sun 03:54:00 AM -9.1970 -60.3159 139° Southeast  Level Estimated
Sun 03:55:00 AM -9.2977 -60.2263 139° Southeast  Level Estimated
Sun 03:56:00 AM -9.3984 -60.1367 139° Southeast  Level Estimated
Sun 03:57:00 AM -9.4991 -60.0470 139° Southeast  Level Estimated
Sun 03:58:00 AM -9.5998 -59.9572 139° Southeast  Level Estimated
Sun 03:59:00 AM -9.7004 -59.8674 139° Southeast  Level Estimated
Sun 04:00:00 AM -9.8011 -59.7775 139° Southeast  Level Estimated
Sun 04:01:00 AM -9.9016 -59.6876 139° Southeast  Level Estimated
Sun 04:02:00 AM -10.0020 -59.5978 139° Southeast  Level Estimated
Sun 04:03:00 AM -10.1024 -59.5079 139° Southeast  Level Estimated
Sun 04:04:00 AM -10.2027 -59.4180 139° Southeast  Level Estimated
Sun 04:05:00 AM -10.3030 -59.3280 139° Southeast  Level Estimated
Sun 04:06:00 AM -10.4033 -59.2380 139° Southeast  Level Estimated
Sun 04:07:00 AM -10.5036 -59.1479 139° Southeast  Level Estimated
Sun 04:08:00 AM -10.6038 -59.0577 139° Southeast  Level Estimated
Sun 04:09:00 AM -10.7040 -58.9675 139° Southeast  Level Estimated
Sun 04:10:00 AM -10.8042 -58.8772 138° Southeast  Level Estimated
Sun 04:11:00 AM -10.9044 -58.7869 138° Southeast  Level Estimated
Sun 04:12:00 AM -11.0045 -58.6965 138° Southeast  Level Estimated
Sun 04:13:00 AM -11.1046 -58.6060 138° Southeast  Level Estimated
Sun 04:14:00 AM -11.2047 -58.5155 138° Southeast  Level Estimated
Sun 04:15:00 AM -11.3048 -58.4249 138° Southeast  Level Estimated
Sun 04:16:00 AM -11.4048 -58.3343 138° Southeast  Level Estimated
Sun 04:17:00 AM -11.5048 -58.2435 138° Southeast  Level Estimated
Sun 04:18:00 AM -11.6048 -58.1528 138° Southeast  Level Estimated
Sun 04:19:00 AM -11.7047 -58.0619 138° Southeast  Level Estimated
Sun 04:20:00 AM -11.8046 -57.9710 138° Southeast  Level Estimated
Sun 04:21:00 AM -11.9045 -57.8800 138° Southeast  Level Estimated
Sun 04:22:00 AM -12.0043 -57.7890 138° Southeast  Level Estimated
Sun 04:23:00 AM -12.1042 -57.6979 138° Southeast  Level Estimated
Sun 04:24:00 AM -12.2040 -57.6067 138° Southeast  Level Estimated
Sun 04:25:00 AM -12.3038 -57.5155 138° Southeast  Level Estimated
Sun 04:26:00 AM -12.4035 -57.4242 138° Southeast  Level Estimated
Sun 04:27:00 AM -12.5032 -57.3328 138° Southeast  Level Estimated
Sun 04:28:00 AM -12.6029 -57.2413 138° Southeast  Level Estimated
Sun 04:29:00 AM -12.7025 -57.1498 138° Southeast  Level Estimated
Sun 04:30:00 AM -12.8021 -57.0582 138° Southeast  Level Estimated
Sun 04:31:00 AM -12.9017 -56.9665 138° Southeast  Level Estimated
Sun 04:32:00 AM -13.0013 -56.8748 138° Southeast  Level Estimated
Sun 04:33:00 AM -13.1008 -56.7830 138° Southeast  Level Estimated
Sun 04:34:00 AM -13.2002 -56.6911 138° Southeast  Level Estimated
Sun 04:35:00 AM -13.2997 -56.5991 138° Southeast  Level Estimated
Sun 04:36:00 AM -13.3991 -56.5071 138° Southeast  Level Estimated
Sun 04:37:00 AM -13.4985 -56.4150 138° Southeast  Level Estimated
Sun 04:38:00 AM -13.5978 -56.3228 138° Southeast  Level Estimated
Sun 04:39:00 AM -13.6972 -56.2305 138° Southeast  Level Estimated
Sun 04:40:00 AM -13.7964 -56.1381 138° Southeast  Level Estimated
Sun 04:41:00 AM -13.8957 -56.0457 138° Southeast  Level Estimated
Sun 04:42:00 AM -13.9949 -55.9532 138° Southeast  Level Estimated
Sun 04:43:00 AM -14.0941 -55.8606 138° Southeast  Level Estimated
Sun 04:44:00 AM -14.1932 -55.7679 138° Southeast  Level Estimated
Sun 04:45:00 AM -14.2923 -55.6752 138° Southeast  Level Estimated
Sun 04:46:00 AM -14.3914 -55.5824 138° Southeast  Level Estimated
Sun 04:47:00 AM -14.4904 -55.4894 138° Southeast  Level Estimated
Sun 04:48:00 AM -14.5894 -55.3965 138° Southeast  Level Estimated
Sun 04:49:00 AM -14.6884 -55.3034 138° Southeast  Level Estimated
Sun 04:50:00 AM -14.7873 -55.2102 138° Southeast  Level Estimated
Sun 04:51:00 AM -14.8862 -55.1170 138° Southeast  Level Estimated
Sun 04:52:00 AM -14.9851 -55.0236 138° Southeast  Level Estimated
Sun 04:53:00 AM -15.0839 -54.9302 138° Southeast  Level Estimated
Sun 04:54:00 AM -15.1826 -54.8367 138° Southeast  Level Estimated
Sun 04:55:00 AM -15.2814 -54.7431 138° Southeast  Level Estimated
Sun 04:56:00 AM -15.3801 -54.6494 138° Southeast  Level Estimated
Sun 04:57:00 AM -15.4787 -54.5557 138° Southeast  Level Estimated
Sun 04:58:00 AM -15.5774 -54.4618 137° Southeast  Level Estimated
Sun 04:59:00 AM -15.6763 -54.3675 137° Southeast  Level Estimated
Sun 05:00:00 AM -15.7752 -54.2731 137° Southeast  Level Estimated
Sun 05:01:00 AM -15.8740 -54.1787 137° Southeast  Level Estimated
Sun 05:02:00 AM -15.9728 -54.0841 137° Southeast  Level Estimated
Sun 05:03:00 AM -16.0716 -53.9894 137° Southeast  Level Estimated
Sun 05:04:00 AM -16.1703 -53.8947 137° Southeast  Level Estimated
Sun 05:05:00 AM -16.2690 -53.7998 137° Southeast  Level Estimated
Sun 05:06:00 AM -16.3677 -53.7049 137° Southeast  Level Estimated
Sun 05:07:00 AM -16.4663 -53.6099 137° Southeast  Level Estimated
Sun 05:08:00 AM -16.5648 -53.5147 137° Southeast  Level Estimated
Sun 05:09:00 AM -16.6633 -53.4195 137° Southeast  Level Estimated
Sun 05:10:00 AM -16.7618 -53.3242 137° Southeast  Level Estimated
Sun 05:11:00 AM -16.8602 -53.2287 137° Southeast  Level Estimated
Sun 05:12:00 AM -16.9586 -53.1332 137° Southeast  Level Estimated
Sun 05:13:00 AM -17.0570 -53.0376 137° Southeast  Level Estimated
Sun 05:14:00 AM -17.1553 -52.9418 137° Southeast  Level Estimated
Sun 05:15:00 AM -17.2535 -52.8460 137° Southeast  Level Estimated
Sun 05:16:00 AM -17.3517 -52.7501 137° Southeast  Level Estimated
Sun 05:17:00 AM -17.4499 -52.6540 137° Southeast  Level Estimated
Sun 05:18:00 AM -17.5480 -52.5579 137° Southeast  Level Estimated
Sun 05:19:00 AM -17.6460 -52.4617 137° Southeast  Level Estimated
Sun 05:20:00 AM -17.7440 -52.3653 137° Southeast  Level Estimated
Sun 05:21:00 AM -17.8420 -52.2688 137° Southeast  Level Estimated
Sun 05:22:00 AM -17.9399 -52.1723 137° Southeast  Level Estimated
Sun 05:23:00 AM -18.0378 -52.0756 137° Southeast  Level Estimated
Sun 05:23:20 AM -19.0590 -50.6080 137° Southeast 512 589 35,000  Level FlightAware ADS-B
Sun 05:23:56 AM -19.1180 -50.5440 134° Southeast 512 589 35,000  Level FlightAware ADS-B
Sun 05:24:00 AM -18.1357 -51.9788 137° Southeast  Level Estimated
Sun 05:24:28 AM -19.1700 -50.4870 134° Southeast 513 590 35,000  Level FlightAware ADS-B
Sun 05:25:04 AM -19.2310 -50.4210 134° Southeast 514 592 35,000  Level FlightAware ADS-B
Sun 05:25:40 AM -19.2920 -50.3550 134° Southeast 513 590 35,000  Level FlightAware ADS-B
Sun 05:26:10 AM -19.3410 -50.3010 134° Southeast 513 590 35,000  Level FlightAware ADS-B
Sun 05:26:48 AM -19.4040 -50.2330 134° Southeast 513 590 35,000  Level FlightAware ADS-B
Sun 05:27:24 AM -19.4630 -50.1680 134° Southeast 513 590 35,000  Level FlightAware ADS-B
Sun 05:27:58 AM -19.5190 -50.1070 134° Southeast 514 592 35,000  Level FlightAware ADS-B
Sun 05:28:34 AM -19.5780 -50.0430 134° Southeast 514 592 35,000  Level FlightAware ADS-B
Sun 05:29:10 AM -19.6360 -49.9790 134° Southeast 512 589 35,000  Level FlightAware ADS-B
Sun 05:29:42 AM -19.6910 -49.9180 134° Southeast 512 589 35,000  Level FlightAware ADS-B
Sun 05:30:20 AM -19.7530 -49.8500 134° Southeast 513 590 35,000  Level FlightAware ADS-B
Sun 05:30:56 AM -19.8130 -49.7850 134° Southeast 514 592 35,000  Level FlightAware ADS-B
Sun 05:31:30 AM -19.8690 -49.7230 134° Southeast 514 592 35,000  Level FlightAware ADS-B
Sun 05:32:02 AM -19.9210 -49.6650 134° Southeast 513 590 35,000  Level FlightAware ADS-B
Sun 05:32:40 AM -19.9860 -49.5950 135° Southeast 512 589 35,000  Level FlightAware ADS-B
Sun 05:33:16 AM -20.0430 -49.5310 133° Southeast 512 589 35,000  Level FlightAware ADS-B
Sun 05:33:48 AM -20.0970 -49.4720 134° Southeast 512 589 35,000  Level FlightAware ADS-B
Sun 05:34:24 AM -20.1560 -49.4070 134° Southeast 511 588 35,000  Level FlightAware ADS-B
Sun 05:35:00 AM -20.2150 -49.3410 134° Southeast 512 589 35,000  Level FlightAware ADS-B
Sun 05:35:36 AM -20.2740 -49.2760 134° Southeast 512 589 35,000  Level FlightAware ADS-B
Sun 05:36:08 AM -20.3270 -49.2170 134° Southeast 512 589 35,000  Level FlightAware ADS-B
Sun 05:36:44 AM -20.3850 -49.1520 134° Southeast 512 589 35,000  Level FlightAware ADS-B
Sun 05:37:20 AM -20.4440 -49.0870 134° Southeast 511 588 35,000  Level FlightAware ADS-B
Sun 05:37:56 AM -20.5030 -49.0210 134° Southeast 509 586 35,000  Level FlightAware ADS-B
Sun 05:38:28 AM -20.5560 -48.9620 134° Southeast 509 586 35,000  Level FlightAware ADS-B
Sun 05:39:04 AM -20.6130 -48.8980 134° Southeast 508 585 35,000  Level FlightAware ADS-B
Sun 05:39:39 AM -20.6710 -48.8340 134° Southeast 506 582 35,000  Level FlightAware ADS-B
Sun 05:40:15 AM -20.7300 -48.7680 134° Southeast 505 581 35,000  Level FlightAware ADS-B
Sun 05:40:47 AM -20.7800 -48.7120 134° Southeast 505 581 35,000  Level FlightAware ADS-B
Sun 05:41:25 AM -20.8420 -48.6420 133° Southeast 506 582 35,000  Level FlightAware ADS-B
Sun 05:41:57 AM -20.8950 -48.5830 134° Southeast 510 587 35,000  Level FlightAware ADS-B
Sun 05:42:33 AM -20.9530 -48.5180 134° Southeast 512 589 35,000  Level FlightAware ADS-B
Sun 05:43:11 AM -21.0140 -48.4480 133° Southeast 513 590 35,000  Level FlightAware ADS-B
Sun 05:43:41 AM -21.0620 -48.3950 134° Southeast 514 592 35,000  Level FlightAware ADS-B
Sun 05:44:19 AM -21.1250 -48.3230 133° Southeast 512 589 35,000  Level FlightAware ADS-B
Sun 05:44:54 AM -21.1880 -48.2630 138° Southeast 512 589 35,000  Level FlightAware ADS-B
Sun 05:45:31 AM -21.2550 -48.2040 141° Southeast 513 590 35,000  Level FlightAware ADS-B
Sun 05:46:02 AM -21.3140 -48.1550 142° Southeast 513 590 35,000  Level FlightAware ADS-B
Sun 05:46:37 AM -21.3790 -48.1010 142° Southeast 513 590 35,000  Level FlightAware ADS-B
Sun 05:47:14 AM -21.4490 -48.0430 142° Southeast 513 590 35,000  Level FlightAware ADS-B
Sun 05:47:50 AM -21.5160 -47.9870 142° Southeast 512 589 35,000  Level FlightAware ADS-B
Sun 05:48:22 AM -21.5760 -47.9370 142° Southeast 511 588 35,000  Level FlightAware ADS-B
Sun 05:48:59 AM -21.6450 -47.8800 142° Southeast 511 588 35,000 -500 Level FlightAware ADS-B
Sun 05:49:34 AM -21.7120 -47.8240 142° Southeast 516 594 34,400 -1,043 Descending FlightAware ADS-B
Sun 05:50:08 AM -21.7760 -47.7710 142° Southeast 515 593 33,800 -943 Descending FlightAware ADS-B
Sun 05:50:44 AM -21.8440 -47.7140 142° Southeast 507 583 33,300 -1,114 Descending FlightAware ADS-B
Sun 05:51:18 AM -21.9060 -47.6620 142° Southeast 495 570 32,500 -1,629 Descending FlightAware ADS-B
Sun 05:51:54 AM -21.9690 -47.6090 142° Southeast 482 555 31,400 -1,833 Descending FlightAware ADS-B
Sun 05:52:30 AM -22.0330 -47.5560 142° Southeast 468 539 30,300 -1,833 Descending FlightAware ADS-B
Sun 05:53:06 AM -22.0930 -47.5060 142° Southeast 455 524 29,200 -1,853 Descending FlightAware ADS-B
Sun 05:53:38 AM -22.1470 -47.4610 142° Southeast 444 511 28,200 -1,818 Descending FlightAware ADS-B
Sun 05:54:12 AM -22.2000 -47.4160 142° Southeast 434 499 27,200 -1,750 Descending FlightAware ADS-B
Sun 05:54:50 AM -22.2590 -47.3660 142° Southeast 423 487 26,100 -1,703 Descending FlightAware ADS-B
Sun 05:55:26 AM -22.3160 -47.3180 142° Southeast 414 476 25,100 -1,676 Descending FlightAware ADS-B
Sun 05:55:58 AM -22.3630 -47.2790 143° Southeast 406 467 24,200 -1,636 Descending FlightAware ADS-B
Sun 05:56:32 AM -22.4130 -47.2360 142° Southeast 399 459 23,300 -1,833 Descending FlightAware ADS-B
Sun 05:57:10 AM -22.4690 -47.1890 142° Southeast 396 456 22,000 -1,941 Descending FlightAware ADS-B
Sun 05:57:40 AM -22.5120 -47.1530 142° Southeast 405 466 21,100 -1,412 Descending FlightAware ADS-B
Sun 05:58:18 AM -22.5700 -47.1060 143° Southeast 406 467 20,400 -1,459 Descending FlightAware ADS-B
Sun 05:58:54 AM -22.6300 -47.0750 155° Southeast 397 457 19,300 -1,808 Descending FlightAware ADS-B
Sun 05:59:31 AM -22.6940 -47.0480 159° South 392 451 18,200 -1,765 Descending FlightAware ADS-B
Sun 06:00:02 AM -22.7440 -47.0280 160° South 387 445 17,300 -1,765 Descending FlightAware ADS-B
Sun 06:00:39 AM -22.8060 -47.0020 159° South 381 438 16,200 -1,775 Descending FlightAware ADS-B
Sun 06:01:13 AM -22.8630 -46.9780 159° South 378 435 15,200 -1,853 Descending FlightAware ADS-B
Sun 06:01:47 AM -22.9180 -46.9540 158° South 376 433 14,100 -1,886 Descending FlightAware ADS-B
Sun 06:02:23 AM -22.9770 -46.9300 159° South 372 428 13,000 -1,644 Descending FlightAware ADS-B
Sun 06:03:00 AM -23.0340 -46.9060 159° South 360 414 12,100 -1,417 Descending FlightAware ADS-B
Sun 06:03:35 AM -23.0890 -46.8830 159° South 351 404 11,300 -1,254 Descending FlightAware ADS-B
Sun 06:04:07 AM -23.1360 -46.8630 159° South 335 386 10,700 -1,000 Descending FlightAware ADS-B
Sun 06:04:41 AM -23.1850 -46.8420 158° South 321 369 10,200 -724 Descending FlightAware ADS-B
Sun 06:05:05 AM -23.2170 -46.8280 158° South 305 351 10,000 -273 Descending FlightAware ADS-B
Sun 06:05:25 AM -23.2420 -46.8180 160° South 289 333 10,000 -600 Level FlightAware ADS-B
Sun 06:05:45 AM -23.2670 -46.8070 158° South 284 327 9,600 -1,143 Descending FlightAware ADS-B
Sun 06:06:07 AM -23.2940 -46.7960 159° South 282 325 9,200 -1,174 Descending FlightAware ADS-B
Sun 06:06:31 AM -23.3230 -46.7840 159° South 279 321 8,700 -1,167 Descending FlightAware ADS-B
Sun 06:06:43 AM -23.3380 -46.7770 157° South 277 319 8,500 -1,125 Descending FlightAware ADS-B
Sun 06:07:03 AM -23.3610 -46.7670 158° South 276 318 8,100 -1,500 Descending FlightAware ADS-B
Sun 06:07:27 AM -23.3860 -46.7500 148° Southeast 276 318 7,400 -1,500 Descending FlightAware ADS-B
Sun 06:07:47 AM -23.4060 -46.7310 139° Southeast 265 305 7,000 -1,350 Descending FlightAware ADS-B
Sun 06:08:07 AM -23.4240 -46.7140 139° Southeast 255 293 6,500 -1,650 Descending FlightAware ADS-B
Sun 06:08:27 AM -23.4420 -46.6970 139° Southeast 255 293 5,900 -1,714 Descending FlightAware ADS-B
Sun 06:08:35 AM -23.4480 -46.6890 129° Southeast 255 293 5,700 -1,500 Descending FlightAware ADS-B
Sun 06:08:43 AM -23.4530 -46.6810 124° Southeast 254 292 5,500 -1,071 Descending FlightAware ADS-B
Sun 06:09:03 AM -23.4630 -46.6570 114° Southeast 252 290 5,200 -450 Descending FlightAware ADS-B
Sun 06:09:23 AM -23.4720 -46.6350 114° Southeast 236 272 5,200  Level FlightAware ADS-B
Sun 06:09:37 AM -23.4760 -46.6200 106° East 227 261 5,200  Level FlightAware ADS-B
Sun 06:09:57 AM -23.4700 -46.6010 71° East 200 230 5,200  Level FlightAware ADS-B
Sun 06:10:19 AM -23.4650 -46.5820 74° East 181 208 5,200 -1,067 Level FlightAware ADS-B
Sun 06:10:42 AM -23.4590 -46.5620 72° East 169 194 4,400 -2,211 Descending FlightAware ADS-B
Sun 06:10:57 AM -23.4560 -46.5490 76° East 171 197 3,800 -2,000 Descending FlightAware ADS-B
Sun 06:11:24 AM -23.4510 -46.5310 73° East 158 182 3,000 -1,385 Descending FlightAware ADS-B
Sun 06:11:49 AM -23.4450 -46.5100 73° East 148 170 2,600 -857 Descending FlightAware ADS-B
Sun 06:12:20 AM -23.4390 -46.4890 73° East 139 160 2,200 -652 Descending FlightAware ADS-B
Sun 06:12:35 AM -23.4360 -46.4780 73° East 136 157 2,100 -146 Descending FlightAware ADS-B
Sun 06:13:01 AM -23.4320 -46.4640 73° East 136 157 2,100  Level FlightAware ADS-B

Login

Don't have an account? Register now (free) for customized features, flight alerts, and more!